createdAt,value
2023-12-07T00:00:11.482Z,28.10
2023-12-07T00:02:14.230Z,28.10
2023-12-07T00:04:16.216Z,28.10
2023-12-07T00:06:18.171Z,28.20
2023-12-07T00:08:20.065Z,28.20
2023-12-07T00:10:21.864Z,28.30
2023-12-07T00:12:23.931Z,28.30
2023-12-07T00:14:26.191Z,28.30
2023-12-07T00:16:28.106Z,28.30
2023-12-07T00:18:29.997Z,28.20
2023-12-07T00:20:32.017Z,28.00
2023-12-07T00:22:33.956Z,28.00
2023-12-07T00:24:35.829Z,28.00
2023-12-07T00:26:39.033Z,28.10
2023-12-07T00:28:41.044Z,28.10
2023-12-07T00:30:43.365Z,28.20
2023-12-07T00:32:45.233Z,28.20
2023-12-07T00:34:47.245Z,28.20
2023-12-07T00:36:49.199Z,28.20
2023-12-07T00:38:51.344Z,28.20
2023-12-07T00:40:53.302Z,28.20
2023-12-07T00:42:55.206Z,28.00
2023-12-07T00:44:57.528Z,28.00
2023-12-07T00:46:59.477Z,28.00
2023-12-07T00:49:01.782Z,28.10
2023-12-07T00:51:04.152Z,28.20
2023-12-07T00:53:05.985Z,28.20
2023-12-07T00:55:11.757Z,28.20
2023-12-07T00:57:14.484Z,28.20
2023-12-07T00:59:16.403Z,28.20
2023-12-07T01:01:18.194Z,28.20
2023-12-07T01:03:20.542Z,28.20
2023-12-07T01:05:22.459Z,28.10
2023-12-07T01:07:24.394Z,28.00
2023-12-07T01:09:26.929Z,28.10
2023-12-07T01:11:28.761Z,28.10
2023-12-07T01:13:31.429Z,28.10
2023-12-07T01:15:33.330Z,28.20
2023-12-07T01:17:35.246Z,28.20
2023-12-07T01:19:37.294Z,28.20
2023-12-07T01:21:39.153Z,28.20
2023-12-07T01:23:41.097Z,28.20
2023-12-07T01:25:43.040Z,28.10
2023-12-07T01:27:45.179Z,28.00
2023-12-07T01:29:47.688Z,28.00
2023-12-07T01:31:49.857Z,28.10
2023-12-07T01:33:51.736Z,28.00
2023-12-07T01:35:53.674Z,28.20
2023-12-07T01:37:55.693Z,28.20
2023-12-07T01:39:57.494Z,28.20
2023-12-07T01:41:59.769Z,28.20
2023-12-07T01:44:01.603Z,28.20
2023-12-07T01:46:04.405Z,28.20
2023-12-07T01:48:07.308Z,28.10
2023-12-07T01:50:10.685Z,28.00
2023-12-07T01:52:13.044Z,28.00
2023-12-07T01:54:14.965Z,28.10
2023-12-07T01:56:17.321Z,28.10
2023-12-07T01:58:20.341Z,28.20
2023-12-07T02:00:22.314Z,28.20
2023-12-07T02:02:24.799Z,28.20
2023-12-07T02:04:26.992Z,28.30
2023-12-07T02:06:29.636Z,28.20
2023-12-07T02:08:31.464Z,28.20
2023-12-07T02:10:33.396Z,28.10
2023-12-07T02:12:36.108Z,28.10
2023-12-07T02:14:37.955Z,28.00
2023-12-07T02:17:02.701Z,28.10
2023-12-07T02:19:16.247Z,28.10
2023-12-07T02:21:35.398Z,28.20
2023-12-07T02:23:46.930Z,28.30
2023-12-07T02:25:55.831Z,28.30
2023-12-07T02:27:57.658Z,28.30
2023-12-07T02:29:59.450Z,28.20
2023-12-07T02:32:01.327Z,28.10
2023-12-07T02:34:03.371Z,28.00
2023-12-07T02:36:06.277Z,28.00
2023-12-07T02:38:09.517Z,28.00
2023-12-07T02:40:13.062Z,28.10
2023-12-07T02:42:17.798Z,28.10
2023-12-07T02:44:19.756Z,28.20
2023-12-07T02:46:21.944Z,28.20
2023-12-07T02:48:23.757Z,28.30
2023-12-07T02:50:25.659Z,28.30
2023-12-07T02:52:27.830Z,28.20
2023-12-07T02:54:29.732Z,28.10
2023-12-07T02:56:31.585Z,28.10
2023-12-07T02:58:33.448Z,28.00
2023-12-07T03:00:35.664Z,28.10
2023-12-07T03:02:38.649Z,28.10
2023-12-07T03:04:40.483Z,28.20
2023-12-07T03:06:42.289Z,28.20
2023-12-07T03:08:44.143Z,28.20
2023-12-07T03:10:45.936Z,28.20
2023-12-07T03:12:47.774Z,28.20
2023-12-07T03:14:49.785Z,28.20
2023-12-07T03:16:51.672Z,28.10
2023-12-07T03:18:53.572Z,28.10
2023-12-07T03:20:55.447Z,28.00
2023-12-07T03:22:57.518Z,28.00
2023-12-07T03:24:59.868Z,28.10
2023-12-07T03:27:01.701Z,28.20
2023-12-07T03:29:03.553Z,28.20
2023-12-07T03:31:05.397Z,28.20
2023-12-07T03:33:07.325Z,28.20
2023-12-07T03:35:09.357Z,28.20
2023-12-07T03:37:11.268Z,28.10
2023-12-07T03:39:14.425Z,28.10
2023-12-07T03:41:16.529Z,28.00
2023-12-07T03:43:21.911Z,28.00
2023-12-07T03:45:24.190Z,27.90
2023-12-07T03:47:26.158Z,28.10
2023-12-07T03:49:28.039Z,28.10
2023-12-07T03:51:30.297Z,28.10
2023-12-07T03:53:32.336Z,28.20
2023-12-07T03:55:34.336Z,28.20
2023-12-07T03:57:36.220Z,28.20
2023-12-07T03:59:38.257Z,28.10
2023-12-07T04:01:40.126Z,28.00
2023-12-07T04:03:41.998Z,28.00
2023-12-07T04:05:44.228Z,28.00
2023-12-07T04:07:46.106Z,28.00
2023-12-07T04:09:48.024Z,28.10
2023-12-07T04:11:49.830Z,28.20
2023-12-07T04:13:51.679Z,28.20
2023-12-07T04:15:53.500Z,28.20
2023-12-07T04:17:55.375Z,28.20
2023-12-07T04:19:57.237Z,28.20
2023-12-07T04:21:59.060Z,28.20
2023-12-07T04:24:00.964Z,28.10
2023-12-07T04:26:02.936Z,28.00
2023-12-07T04:28:04.783Z,27.90
2023-12-07T04:30:07.398Z,28.00
2023-12-07T04:32:09.270Z,28.10
2023-12-07T04:34:11.185Z,28.10
2023-12-07T04:36:13.261Z,28.20
2023-12-07T04:38:15.153Z,28.20
2023-12-07T04:40:17.133Z,28.20
2023-12-07T04:42:19.049Z,28.20
2023-12-07T04:44:21.547Z,28.10
2023-12-07T04:46:23.496Z,28.00
2023-12-07T04:48:26.736Z,27.90
2023-12-07T04:50:28.768Z,27.90
2023-12-07T04:52:31.193Z,27.90
2023-12-07T04:54:33.580Z,28.00
2023-12-07T04:56:35.554Z,28.10
2023-12-07T04:58:37.426Z,28.10
2023-12-07T05:00:39.553Z,28.20
2023-12-07T05:02:41.397Z,28.20
2023-12-07T05:04:48.765Z,28.10
2023-12-07T05:06:50.558Z,28.00
2023-12-07T05:08:52.374Z,28.00
2023-12-07T05:10:54.288Z,27.90
2023-12-07T05:12:57.973Z,27.90
2023-12-07T05:14:59.826Z,27.90
2023-12-07T05:17:02.103Z,28.00
2023-12-07T05:19:04.212Z,28.10
2023-12-07T05:21:06.515Z,28.20
2023-12-07T05:23:08.885Z,28.20
2023-12-07T05:25:10.801Z,28.20
2023-12-07T05:27:12.677Z,28.10
2023-12-07T05:29:14.836Z,28.00
2023-12-07T05:31:17.941Z,27.90
2023-12-07T05:33:20.568Z,27.90
2023-12-07T05:35:22.415Z,27.90
2023-12-07T05:37:24.188Z,28.00
2023-12-07T05:39:26.921Z,28.10
2023-12-07T05:41:28.797Z,28.10
2023-12-07T05:43:32.147Z,28.20
2023-12-07T05:45:34.120Z,28.20
2023-12-07T05:47:36.252Z,28.20
2023-12-07T05:49:38.098Z,28.20
2023-12-07T05:51:40.654Z,28.10
2023-12-07T05:53:43.065Z,28.00
2023-12-07T05:55:44.945Z,27.90
2023-12-07T05:57:47.539Z,28.00
2023-12-07T05:59:49.448Z,28.00
2023-12-07T06:01:54.396Z,28.10
2023-12-07T06:03:56.372Z,28.20
2023-12-07T06:05:58.260Z,28.20
2023-12-07T06:08:00.131Z,28.20
2023-12-07T06:10:02.496Z,28.20
2023-12-07T06:12:05.378Z,28.10
2023-12-07T06:14:08.575Z,28.00
2023-12-07T06:16:14.880Z,27.90
2023-12-07T06:18:18.799Z,27.90
2023-12-07T06:20:21.225Z,28.00
2023-12-07T06:22:23.385Z,28.10
2023-12-07T06:24:25.782Z,28.10
2023-12-07T06:26:27.564Z,28.20
2023-12-07T06:28:29.533Z,28.20
2023-12-07T06:30:31.630Z,28.20
2023-12-07T06:32:33.986Z,28.20
2023-12-07T06:34:41.180Z,28.10
2023-12-07T06:36:43.070Z,28.00
2023-12-07T06:38:44.895Z,27.90
2023-12-07T06:40:46.903Z,27.90
2023-12-07T06:42:49.318Z,28.00
2023-12-07T06:44:51.276Z,28.00
2023-12-07T06:46:53.118Z,28.10
2023-12-07T06:48:55.297Z,28.10
2023-12-07T06:50:57.234Z,28.20
2023-12-07T06:52:59.128Z,28.20
2023-12-07T06:55:01.153Z,28.10
2023-12-07T06:57:02.984Z,28.00
2023-12-07T06:59:04.819Z,28.00
2023-12-07T07:01:06.949Z,27.90
2023-12-07T07:03:08.740Z,27.80
2023-12-07T07:05:12.634Z,27.90
2023-12-07T07:07:14.608Z,28.00
2023-12-07T07:09:16.864Z,28.10
2023-12-07T07:11:18.775Z,28.10
2023-12-07T07:13:21.379Z,28.20
2023-12-07T07:15:26.431Z,28.20
2023-12-07T07:17:30.007Z,28.10
2023-12-07T07:19:32.588Z,28.00
2023-12-07T07:21:34.486Z,27.90
2023-12-07T07:23:36.998Z,27.90
2023-12-07T07:25:39.984Z,27.90
2023-12-07T07:27:41.953Z,28.00
2023-12-07T07:29:44.481Z,28.00
2023-12-07T07:31:46.407Z,28.10
2023-12-07T07:33:48.399Z,28.20
2023-12-07T07:36:02.149Z,28.20
2023-12-07T07:38:04.004Z,28.20
2023-12-07T07:40:08.085Z,28.10
2023-12-07T07:42:10.142Z,28.10
2023-12-07T07:44:12.014Z,27.90
2023-12-07T07:46:13.896Z,27.90
2023-12-07T07:48:16.263Z,27.90
2023-12-07T07:50:18.720Z,28.00
2023-12-07T07:52:20.553Z,28.10
2023-12-07T07:54:22.377Z,28.20
2023-12-07T07:56:24.237Z,28.10
2023-12-07T07:58:26.080Z,28.20
2023-12-07T08:00:29.182Z,28.10
2023-12-07T08:02:30.992Z,28.10
2023-12-07T08:04:33.557Z,28.00
2023-12-07T08:06:37.647Z,27.90
2023-12-07T08:08:39.972Z,27.90
2023-12-07T08:10:53.995Z,28.00
2023-12-07T08:12:58.073Z,28.00
2023-12-07T08:14:59.964Z,28.10
2023-12-07T08:17:01.801Z,28.20
2023-12-07T08:19:03.676Z,28.20
2023-12-07T08:21:05.951Z,28.20
2023-12-07T08:23:07.730Z,28.20
2023-12-07T08:25:11.877Z,28.10
2023-12-07T08:27:14.039Z,28.00
2023-12-07T08:29:15.842Z,27.90
2023-12-07T08:31:18.561Z,27.90
2023-12-07T08:33:20.592Z,27.90
2023-12-07T08:35:22.808Z,28.00
2023-12-07T08:37:24.913Z,28.10
2023-12-07T08:39:27.295Z,28.10
2023-12-07T08:41:29.118Z,28.20
2023-12-07T08:43:31.963Z,28.10
2023-12-07T08:45:34.130Z,28.10
2023-12-07T08:47:36.114Z,28.00
2023-12-07T08:49:38.100Z,28.00
2023-12-07T08:51:45.884Z,27.80
2023-12-07T08:53:54.567Z,27.90
2023-12-07T08:55:56.698Z,27.90
2023-12-07T08:57:58.617Z,28.00
2023-12-07T09:00:00.765Z,28.10
2023-12-07T09:02:02.691Z,28.10
2023-12-07T09:04:04.723Z,28.20
2023-12-07T09:06:07.944Z,28.20
2023-12-07T09:08:10.986Z,28.10
2023-12-07T09:10:13.069Z,28.00
2023-12-07T09:12:17.597Z,27.90
2023-12-07T09:14:23.205Z,27.90
2023-12-07T09:16:26.985Z,27.90
2023-12-07T09:18:28.894Z,28.00
2023-12-07T09:20:30.706Z,28.10
2023-12-07T09:22:37.484Z,28.10
2023-12-07T09:24:41.163Z,28.20
2023-12-07T09:26:42.970Z,28.20
2023-12-07T09:28:44.778Z,28.20
2023-12-07T09:30:46.623Z,28.10
2023-12-07T09:32:48.761Z,28.00
2023-12-07T09:34:52.296Z,28.00
2023-12-07T09:37:10.015Z,28.00
2023-12-07T09:39:12.121Z,28.00
2023-12-07T09:41:14.026Z,28.10
2023-12-07T09:43:15.959Z,28.10
2023-12-07T09:45:20.456Z,28.20
2023-12-07T09:47:28.430Z,28.20
2023-12-07T09:49:36.220Z,28.20
2023-12-07T09:51:39.558Z,28.20
2023-12-07T09:53:44.844Z,28.10
2023-12-07T09:55:47.998Z,28.00
2023-12-07T09:57:51.562Z,28.00
2023-12-07T09:59:53.386Z,28.00
2023-12-07T10:01:55.185Z,28.00
2023-12-07T10:04:29.650Z,28.10
2023-12-07T10:06:45.699Z,28.20
2023-12-07T10:08:48.099Z,28.20
2023-12-07T10:11:03.795Z,28.20
2023-12-07T10:13:05.785Z,28.20
2023-12-07T10:15:14.967Z,28.10
2023-12-07T10:17:16.903Z,28.00
2023-12-07T10:19:31.207Z,27.90
2023-12-07T10:21:35.144Z,27.90
2023-12-07T10:23:41.973Z,28.00
2023-12-07T10:25:44.352Z,28.00
2023-12-07T10:27:46.236Z,28.10
2023-12-07T10:29:48.059Z,28.10
2023-12-07T10:31:49.984Z,28.10
2023-12-07T10:33:52.025Z,28.10
2023-12-07T10:35:53.985Z,28.10
2023-12-07T10:37:55.930Z,28.10
2023-12-07T10:39:57.706Z,28.00
2023-12-07T10:42:03.588Z,27.80
2023-12-07T10:44:07.864Z,27.80
2023-12-07T10:46:10.639Z,27.90
2023-12-07T10:48:12.975Z,28.00
2023-12-07T10:50:19.331Z,28.10
2023-12-07T10:52:25.427Z,28.10
2023-12-07T10:54:36.566Z,28.20
2023-12-07T10:56:46.013Z,28.00
2023-12-07T10:58:49.596Z,28.10
2023-12-07T11:00:53.424Z,28.20
2023-12-07T11:02:55.887Z,28.10
2023-12-07T11:04:59.231Z,28.00
2023-12-07T11:07:08.282Z,28.00
2023-12-07T11:09:17.063Z,28.00
2023-12-07T11:11:20.914Z,28.10
2023-12-07T11:13:29.546Z,28.20
2023-12-07T11:15:31.595Z,28.20
2023-12-07T11:17:51.066Z,28.20
2023-12-07T11:19:53.463Z,28.10
2023-12-07T11:21:55.329Z,28.10
2023-12-07T11:24:00.389Z,28.00
2023-12-07T11:26:03.352Z,27.90
2023-12-07T11:28:06.927Z,27.90
2023-12-07T11:30:09.320Z,27.90
2023-12-07T11:32:17.072Z,27.90
2023-12-07T11:34:41.903Z,28.00
2023-12-07T11:36:43.768Z,28.10
2023-12-07T11:39:17.390Z,28.00
2023-12-07T11:41:22.511Z,28.00
2023-12-07T11:43:36.747Z,27.80
2023-12-07T11:45:39.491Z,27.70
2023-12-07T11:47:42.133Z,27.70
2023-12-07T11:49:45.365Z,27.70
2023-12-07T11:51:47.232Z,27.80
2023-12-07T11:53:51.168Z,27.90
2023-12-07T11:55:53.404Z,27.90
2023-12-07T11:57:55.582Z,27.90
2023-12-07T11:59:57.406Z,27.80
2023-12-07T12:02:05.265Z,27.70
2023-12-07T12:04:07.302Z,27.70
2023-12-07T12:06:11.855Z,27.60
2023-12-07T12:08:14.231Z,27.70
2023-12-07T12:10:16.158Z,27.80
2023-12-07T12:12:18.139Z,27.80
2023-12-07T12:14:20.635Z,27.90
2023-12-07T12:16:22.606Z,27.90
2023-12-07T12:30:52.043Z,28.00
2023-12-07T12:32:54.662Z,28.30
2023-12-07T12:34:56.512Z,28.40
2023-12-07T12:36:58.499Z,28.50
2023-12-07T12:39:01.221Z,28.70
2023-12-07T12:41:04.945Z,28.70
2023-12-07T12:43:07.238Z,28.70
2023-12-07T12:45:09.774Z,28.70
2023-12-07T12:47:12.300Z,28.70
2023-12-07T12:49:14.485Z,28.80
2023-12-07T12:51:16.393Z,28.80
2023-12-07T12:53:18.516Z,28.90
2023-12-07T12:55:20.576Z,29.00
2023-12-07T12:57:22.639Z,29.00
2023-12-07T12:59:25.623Z,29.10
2023-12-07T13:01:27.967Z,29.00
2023-12-07T13:03:30.107Z,29.00
2023-12-07T13:05:33.515Z,28.90
2023-12-07T13:07:36.615Z,28.90
2023-12-07T13:09:38.537Z,28.90
2023-12-07T13:11:40.364Z,29.00
2023-12-07T13:13:42.277Z,29.10
2023-12-07T13:15:44.078Z,29.10
2023-12-07T13:17:46.108Z,29.20
2023-12-07T13:19:48.092Z,29.20
2023-12-07T13:21:50.037Z,29.10
2023-12-07T13:23:52.565Z,28.90
2023-12-07T13:25:55.122Z,28.70
2023-12-07T13:27:57.018Z,28.80
2023-12-07T13:29:58.877Z,28.80
2023-12-07T13:32:01.357Z,29.00
2023-12-07T13:34:09.095Z,29.10
2023-12-07T13:36:14.353Z,29.20
2023-12-07T13:38:16.431Z,29.20
2023-12-07T13:40:18.261Z,29.10
2023-12-07T13:42:20.733Z,29.10
2023-12-07T13:44:27.968Z,29.10
2023-12-07T13:46:31.204Z,29.10
2023-12-07T13:48:33.090Z,29.00
2023-12-07T13:50:35.068Z,29.00
2023-12-07T13:52:36.899Z,29.10
2023-12-07T13:54:50.949Z,29.20
2023-12-07T13:56:56.324Z,29.40
2023-12-07T14:03:12.694Z,28.80
2023-12-07T14:05:14.799Z,28.80
2023-12-07T14:07:22.148Z,28.80
2023-12-07T14:09:24.262Z,29.00
2023-12-07T14:11:26.189Z,29.00
2023-12-07T14:13:28.088Z,28.90
2023-12-07T14:15:39.714Z,29.20
2023-12-07T14:17:53.164Z,29.40
2023-12-07T14:20:00.722Z,29.40
2023-12-07T14:22:12.639Z,29.40
2023-12-07T14:28:31.720Z,29.10
2023-12-07T14:30:33.774Z,29.10
2023-12-07T14:32:35.824Z,29.10
2023-12-07T14:34:37.957Z,29.20
2023-12-07T14:40:56.212Z,29.40
2023-12-07T14:42:58.554Z,29.20
2023-12-07T14:45:00.454Z,29.40
2023-12-07T14:47:02.596Z,29.20
2023-12-07T14:49:04.466Z,29.20
2023-12-07T14:51:06.503Z,29.10
2023-12-07T14:53:08.289Z,29.10
2023-12-07T14:55:10.061Z,29.20
2023-12-07T14:57:11.796Z,29.30
2023-12-07T14:59:13.870Z,29.40
2023-12-07T15:01:15.805Z,29.40
2023-12-07T15:03:19.396Z,29.40
2023-12-07T15:05:21.368Z,29.40
2023-12-07T15:07:23.171Z,29.40
2023-12-07T15:09:25.045Z,29.40
2023-12-07T15:11:27.152Z,29.30
2023-12-07T15:13:28.982Z,29.20
2023-12-07T15:15:31.710Z,29.20
2023-12-07T15:17:33.991Z,29.30
2023-12-07T15:19:36.088Z,29.40
2023-12-07T15:21:39.181Z,29.30
2023-12-07T15:23:41.937Z,29.20
2023-12-07T15:25:43.901Z,29.10
2023-12-07T15:27:48.107Z,29.20
2023-12-07T15:29:50.069Z,29.20
2023-12-07T15:31:51.929Z,29.10
2023-12-07T15:33:54.010Z,28.90
2023-12-07T15:35:57.489Z,29.10
2023-12-07T15:37:59.813Z,29.10
2023-12-07T15:40:01.622Z,29.10
2023-12-07T15:42:04.283Z,29.20
2023-12-07T15:44:07.379Z,29.20
2023-12-07T15:46:09.568Z,29.20
2023-12-07T15:48:11.572Z,29.20
2023-12-07T15:50:13.593Z,29.00
2023-12-07T15:52:15.638Z,28.90
2023-12-07T15:54:27.494Z,29.00
2023-12-07T15:56:41.604Z,29.00
2023-12-07T15:58:43.574Z,29.00
2023-12-07T16:00:46.034Z,29.10
2023-12-07T16:02:48.042Z,29.20
2023-12-07T16:04:50.004Z,29.20
2023-12-07T16:06:52.028Z,29.20
2023-12-07T16:08:53.979Z,29.20
2023-12-07T16:10:55.750Z,29.10
2023-12-07T16:12:57.601Z,28.90
2023-12-07T16:14:59.458Z,28.70
2023-12-07T16:17:02.435Z,28.80
2023-12-07T16:19:04.625Z,28.90
2023-12-07T16:21:06.915Z,28.90
2023-12-07T16:23:09.211Z,28.80
2023-12-07T16:25:11.068Z,28.80
2023-12-07T16:27:12.875Z,28.80
2023-12-07T16:29:16.578Z,28.80
2023-12-07T16:31:18.502Z,28.70
2023-12-07T16:33:20.979Z,28.60
2023-12-07T16:35:22.925Z,28.60
2023-12-07T16:37:26.819Z,28.50
2023-12-07T16:39:30.938Z,28.60
2023-12-07T16:41:38.936Z,28.70
2023-12-07T16:43:46.644Z,28.70
2023-12-07T16:45:48.566Z,28.60
2023-12-07T16:47:51.273Z,28.60
2023-12-07T16:49:53.181Z,28.50
2023-12-07T16:51:55.073Z,28.40
2023-12-07T16:53:56.986Z,28.30
2023-12-07T16:55:59.010Z,28.20
2023-12-07T16:58:00.904Z,28.20
2023-12-07T17:00:03.015Z,28.30
2023-12-07T17:02:05.715Z,28.40
2023-12-07T17:04:08.170Z,28.40
2023-12-07T17:06:11.840Z,28.50
2023-12-07T17:08:15.326Z,28.50
2023-12-07T17:10:17.185Z,28.30
2023-12-07T17:12:19.040Z,28.30
2023-12-07T17:14:20.923Z,28.40
2023-12-07T17:16:22.748Z,28.30
2023-12-07T17:18:24.940Z,28.20
2023-12-07T17:20:27.038Z,28.20
2023-12-07T17:22:29.038Z,28.10
2023-12-07T17:24:30.868Z,28.20
2023-12-07T17:26:36.686Z,28.20
2023-12-07T17:28:43.942Z,28.20
2023-12-07T17:30:45.836Z,28.30
2023-12-07T17:32:49.460Z,28.30
2023-12-07T17:34:52.933Z,28.40
2023-12-07T17:36:54.860Z,28.30
2023-12-07T17:38:57.048Z,28.40
2023-12-07T17:40:58.989Z,28.30
2023-12-07T17:43:00.988Z,28.50
2023-12-07T17:45:03.039Z,28.70
2023-12-07T17:47:05.133Z,28.90
2023-12-07T17:49:09.273Z,29.10
2023-12-07T17:51:12.621Z,29.10
2023-12-07T17:53:14.912Z,29.10
2023-12-07T17:55:16.862Z,29.00
2023-12-07T17:57:19.231Z,29.00
2023-12-07T17:59:22.668Z,29.00
2023-12-07T18:01:25.063Z,29.00
2023-12-07T18:03:26.998Z,29.10
2023-12-07T18:05:28.903Z,29.20
2023-12-07T18:07:30.792Z,29.30
2023-12-07T18:09:32.568Z,29.30
2023-12-07T18:11:34.475Z,29.30
2023-12-07T18:13:36.495Z,29.30
2023-12-07T18:15:38.261Z,29.30
2023-12-07T18:17:40.411Z,29.20
2023-12-07T18:19:42.357Z,29.20
2023-12-07T18:21:44.321Z,29.00
2023-12-07T18:23:46.553Z,29.00
2023-12-07T18:25:48.466Z,29.10
2023-12-07T18:27:50.762Z,29.20
2023-12-07T18:29:52.692Z,29.20
2023-12-07T18:31:54.597Z,29.10
2023-12-07T18:33:56.710Z,29.10
2023-12-07T18:35:58.782Z,29.10
2023-12-07T18:38:01.900Z,29.10
2023-12-07T18:40:03.881Z,28.90
2023-12-07T18:42:06.012Z,28.80
2023-12-07T18:44:07.892Z,28.80
2023-12-07T18:46:10.821Z,28.80
2023-12-07T18:48:12.863Z,28.80
2023-12-07T18:50:14.910Z,28.80
2023-12-07T18:52:19.938Z,28.90
2023-12-07T18:54:21.736Z,28.90
2023-12-07T18:58:47.490Z,28.60
2023-12-07T19:00:49.484Z,28.70
2023-12-07T19:02:51.439Z,28.60
2023-12-07T19:04:53.544Z,28.50
2023-12-07T19:07:00.046Z,28.50
2023-12-07T19:09:03.372Z,28.70
2023-12-07T19:11:05.455Z,28.70
2023-12-07T19:13:07.315Z,28.50
2023-12-07T19:15:09.694Z,28.50
2023-12-07T19:17:11.899Z,28.50
2023-12-07T19:19:14.004Z,28.30
2023-12-07T19:21:15.889Z,28.10
2023-12-07T19:23:17.820Z,28.10
2023-12-07T19:25:20.588Z,28.00
2023-12-07T19:27:22.484Z,27.90
2023-12-07T19:29:24.361Z,28.00
2023-12-07T19:31:26.386Z,28.10
2023-12-07T19:33:29.113Z,28.10
2023-12-07T19:35:32.566Z,28.10
2023-12-07T19:37:37.236Z,28.20
2023-12-07T19:39:39.198Z,28.20
2023-12-07T19:41:42.197Z,28.10
2023-12-07T19:43:44.626Z,28.00
2023-12-07T19:45:46.526Z,27.90
2023-12-07T19:47:48.568Z,28.10
2023-12-07T19:49:50.490Z,28.00
2023-12-07T19:51:53.310Z,28.10
2023-12-07T19:53:55.155Z,28.20
2023-12-07T19:55:58.188Z,28.20
2023-12-07T19:58:01.256Z,28.10
2023-12-07T20:00:03.630Z,28.10
2023-12-07T20:02:06.483Z,28.00
2023-12-07T20:04:08.437Z,27.90
2023-12-07T20:06:10.406Z,27.90
2023-12-07T20:08:12.722Z,27.90
2023-12-07T20:10:14.642Z,27.90
2023-12-07T20:12:16.616Z,28.00
2023-12-07T20:14:19.251Z,28.00
2023-12-07T20:16:22.071Z,28.10
2023-12-07T20:18:23.969Z,28.10
2023-12-07T20:20:26.037Z,28.10
2023-12-07T20:22:27.953Z,28.10
2023-12-07T20:24:29.712Z,28.00
2023-12-07T20:26:31.855Z,28.00
2023-12-07T20:28:34.684Z,28.00
2023-12-07T20:30:36.478Z,28.00
2023-12-07T20:32:38.572Z,28.00
2023-12-07T20:34:40.751Z,28.00
2023-12-07T20:36:42.689Z,28.00
2023-12-07T20:38:44.500Z,28.00
2023-12-07T20:40:46.335Z,28.00
2023-12-07T20:42:48.337Z,27.90
2023-12-07T20:44:50.150Z,27.90
2023-12-07T20:46:51.980Z,27.80
2023-12-07T20:48:53.907Z,27.80
2023-12-07T20:50:55.799Z,27.80
2023-12-07T20:52:57.666Z,27.80
2023-12-07T20:55:01.373Z,27.90
2023-12-07T20:57:03.470Z,27.90
2023-12-07T20:59:05.313Z,28.00
2023-12-07T21:01:07.214Z,28.00
2023-12-07T21:03:09.207Z,27.90
2023-12-07T21:05:11.181Z,27.90
2023-12-07T21:07:13.109Z,27.90
2023-12-07T21:09:15.033Z,27.80
2023-12-07T21:11:16.867Z,27.90
2023-12-07T21:13:18.683Z,27.90
2023-12-07T21:15:20.492Z,27.90
2023-12-07T21:17:22.637Z,27.90
2023-12-07T21:19:25.514Z,28.00
2023-12-07T21:21:27.505Z,28.00
2023-12-07T21:23:29.424Z,28.00
2023-12-07T21:25:31.393Z,28.00
2023-12-07T21:27:33.423Z,27.90
2023-12-07T21:29:35.292Z,27.90
2023-12-07T21:31:37.111Z,27.80
2023-12-07T21:33:39.080Z,27.80
2023-12-07T21:35:41.120Z,27.90
2023-12-07T21:37:43.257Z,27.90
2023-12-07T21:39:45.126Z,27.90
2023-12-07T21:41:50.750Z,28.00
2023-12-07T21:43:52.782Z,28.00
2023-12-07T21:45:54.804Z,28.00
2023-12-07T21:47:56.790Z,28.00
2023-12-07T21:49:58.685Z,27.90
2023-12-07T21:52:01.408Z,27.90
2023-12-07T21:54:03.400Z,27.80
2023-12-07T21:56:05.745Z,27.90
2023-12-07T21:58:07.511Z,27.90
2023-12-07T22:00:10.152Z,28.00
2023-12-07T22:02:11.993Z,28.00
2023-12-07T22:04:13.948Z,28.00
2023-12-07T22:06:27.219Z,28.00
2023-12-07T22:08:29.078Z,27.90
2023-12-07T22:10:31.045Z,27.90
2023-12-07T22:12:32.881Z,27.80
2023-12-07T22:14:38.695Z,27.80
2023-12-07T22:16:44.246Z,27.80
2023-12-07T22:18:46.359Z,27.90
2023-12-07T22:20:49.817Z,27.90
2023-12-07T22:22:52.214Z,28.00
2023-12-07T22:24:54.107Z,28.00
2023-12-07T22:26:56.006Z,28.00
2023-12-07T22:28:57.887Z,28.00
2023-12-07T22:30:59.839Z,27.90
2023-12-07T22:33:01.949Z,27.90
2023-12-07T22:35:04.527Z,27.80
2023-12-07T22:37:06.607Z,27.80
2023-12-07T22:39:08.516Z,27.90
2023-12-07T22:41:14.640Z,27.90
2023-12-07T22:43:16.587Z,28.00
2023-12-07T22:45:19.081Z,28.00
2023-12-07T22:47:20.935Z,28.00
2023-12-07T22:49:23.028Z,28.00
2023-12-07T22:51:25.083Z,27.90
2023-12-07T22:53:26.922Z,27.90
2023-12-07T22:55:28.828Z,27.80
2023-12-07T22:57:30.631Z,27.80
2023-12-07T22:59:32.625Z,27.90
2023-12-07T23:01:34.478Z,27.90
2023-12-07T23:03:36.872Z,28.00
2023-12-07T23:05:38.733Z,28.00
2023-12-07T23:07:40.649Z,28.00
2023-12-07T23:09:42.451Z,28.10
2023-12-07T23:11:45.072Z,28.00
2023-12-07T23:13:46.904Z,27.90
2023-12-07T23:15:48.778Z,27.90
2023-12-07T23:17:50.943Z,27.80
2023-12-07T23:19:52.970Z,27.80
2023-12-07T23:21:54.794Z,27.80
2023-12-07T23:23:56.686Z,27.90
2023-12-07T23:25:58.578Z,27.90
2023-12-07T23:28:00.425Z,28.00
2023-12-07T23:30:02.347Z,28.00
2023-12-07T23:32:04.465Z,28.00
2023-12-07T23:34:06.597Z,27.90
2023-12-07T23:36:08.890Z,27.90
2023-12-07T23:38:13.028Z,27.80
2023-12-07T23:40:15.021Z,27.80
2023-12-07T23:42:17.001Z,27.90
2023-12-07T23:44:18.890Z,28.00
2023-12-07T23:46:20.802Z,28.00
2023-12-07T23:48:22.849Z,28.00
2023-12-07T23:50:24.685Z,28.00
2023-12-07T23:52:26.616Z,28.10
2023-12-07T23:54:28.493Z,28.00
2023-12-07T23:56:31.019Z,28.00
2023-12-07T23:58:44.495Z,27.90
